Time;durP1;ratioP1;P1;durP2;ratioP2;P2;SDS_P1;SDS_P2;PMS_P1;PMS_P2;Temp;Humidity;BMP_temperature;BMP_pressure;BME280_temperature;BME280_humidity;BME280_pressure;Samples;Min_cycle;Max_cycle;Signal;HPM_P1;HPM_P2
2023/02/18 00:00:53;;;;;;;;;;;;;;;10.31;51.11;93645.31;2057278;69;20459;-77
2023/02/18 00:03:19;;;;;;;;;;;;;;;10.12;51.42;93637.50;2057532;69;20132;-78
2023/02/18 00:05:44;;;;;;;;;;;;;;;10.08;51.70;93637.19;2055020;69;20054;-78
2023/02/18 00:08:09;;;;;;;;;;;;;;;9.93;52.08;93636.09;2056115;69;20070;-79
2023/02/18 00:10:35;;;;;;;;;;;;;;;10.10;51.30;93638.09;2056732;69;20072;-79
2023/02/18 00:13:00;;;;;;;;;;;;;;;9.96;51.62;93633.44;2057349;69;20054;-79
2023/02/18 00:15:26;;;;;;;;;;;;;;;10.07;51.61;93633.63;2057226;69;20045;-79
2023/02/18 00:17:51;;;;;;;;;;;;;;;10.05;51.96;93632.75;2056809;69;20121;-76
2023/02/18 00:20:17;;;;;;;;;;;;;;;10.26;51.24;93627.38;2056870;69;20089;-77
2023/02/18 00:22:42;;;;;;;;;;;;;;;9.98;51.95;93634.34;2057171;69;20053;-79
2023/02/18 00:25:08;;;;;;;;;;;;;;;9.99;51.39;93627.41;2057754;69;20085;-78
2023/02/18 00:27:37;;;;;;;;;;;;;;;9.88;52.02;93625.84;2057088;69;20050;-79
2023/02/18 00:30:03;;;;;;;;;;;;;;;9.95;51.73;93621.47;2056500;69;20056;-78
2023/02/18 00:32:29;;;;;;;;;;;;;;;9.98;52.01;93625.91;2056464;69;20074;-76
2023/02/18 00:34:54;;;;;;;;;;;;;;;10.14;51.33;93632.06;2056894;69;20445;-73
2023/02/18 00:37:20;;;;;;;;;;;;;;;10.05;51.74;93621.50;2055818;69;20168;-75
2023/02/18 00:39:46;;;;;;;;;;;;;;;10.08;51.27;93626.69;2056860;69;20232;-78
2023/02/18 00:42:13;;;;;;;;;;;;;;;9.78;52.25;93630.69;2055853;69;20049;-77
2023/02/18 00:44:41;;;;;;;;;;;;;;;9.87;52.26;93637.69;2057191;69;20130;-79
2023/02/18 00:47:07;;;;;;;;;;;;;;;9.91;52.13;93632.41;2054360;69;20112;-78
2023/02/18 00:49:32;;;;;;;;;;;;;;;9.90;52.08;93623.22;2057424;69;20066;-79
2023/02/18 00:51:58;;;;;;;;;;;;;;;9.88;52.04;93623.03;2057398;69;20132;-77
2023/02/18 00:54:23;;;;;;;;;;;;;;;9.83;52.01;93626.13;2057124;69;20090;-78
2023/02/18 00:56:49;;;;;;;;;;;;;;;9.75;52.30;93626.22;2057478;69;20053;-78
2023/02/18 00:59:15;;;;;;;;;;;;;;;9.49;52.76;93629.78;2057790;69;20046;-78
2023/02/18 01:01:40;;;;;;;;;;;;;;;9.77;51.85;93625.66;2057094;69;20213;-81
2023/02/18 01:04:06;;;;;;;;;;;;;;;9.91;51.42;93632.41;2056952;69;20148;-78
2023/02/18 01:06:32;;;;;;;;;;;;;;;9.74;52.55;93619.13;2057208;69;20065;-79
2023/02/18 01:08:58;;;;;;;;;;;;;;;9.63;52.11;93631.66;2057698;69;20060;-80
2023/02/18 01:11:23;;;;;;;;;;;;;;;9.83;51.55;93614.88;2057879;69;20086;-80
2023/02/18 01:13:49;;;;;;;;;;;;;;;9.68;52.98;93613.03;2056691;69;20145;-80
2023/02/18 01:16:15;;;;;;;;;;;;;;;9.67;52.04;93600.31;2056215;69;20049;-79
2023/02/18 01:18:41;;;;;;;;;;;;;;;9.65;51.76;93611.38;2057732;69;20145;-78
2023/02/18 01:21:07;;;;;;;;;;;;;;;9.67;51.94;93612.28;2056727;69;20056;-79
2023/02/18 01:23:35;;;;;;;;;;;;;;;9.66;52.11;93613.59;2057330;69;20056;-79
2023/02/18 01:26:01;;;;;;;;;;;;;;;9.74;52.04;93615.56;2057504;69;20098;-79
2023/02/18 01:28:28;;;;;;;;;;;;;;;9.73;52.35;93603.59;2057527;69;20149;-75
2023/02/18 01:30:53;;;;;;;;;;;;;;;9.55;53.01;93590.91;2056119;69;20530;-76
2023/02/18 01:33:19;;;;;;;;;;;;;;;9.49;52.61;93596.81;2057336;69;20092;-75
2023/02/18 01:35:45;;;;;;;;;;;;;;;9.51;53.19;93601.84;2057527;69;20048;-76
2023/02/18 01:38:11;;;;;;;;;;;;;;;9.40;52.45;93581.38;2056659;69;20116;-76
2023/02/18 01:40:43;;;;;;;;;;;;;;;9.23;52.75;93583.47;2053786;69;20054;-76
2023/02/18 01:43:09;;;;;;;;;;;;;;;9.29;53.30;93590.31;2057231;69;20089;-76
2023/02/18 01:45:37;;;;;;;;;;;;;;;9.30;53.20;93591.03;2058322;69;20050;-76
2023/02/18 01:48:05;;;;;;;;;;;;;;;9.40;52.63;93583.44;2057600;69;20398;-76
2023/02/18 01:50:31;;;;;;;;;;;;;;;9.18;53.93;93570.44;2058374;69;20054;-78
2023/02/18 01:52:57;;;;;;;;;;;;;;;9.23;52.71;93564.53;2057056;69;20065;-79
2023/02/18 01:55:23;;;;;;;;;;;;;;;9.41;52.30;93577.22;2057001;69;20073;-78
2023/02/18 01:57:49;;;;;;;;;;;;;;;9.32;52.39;93588.41;2056999;69;20163;-77
2023/02/18 02:00:16;;;;;;;;;;;;;;;9.30;52.29;93577.00;2057643;69;20560;-76
2023/02/18 02:02:45;;;;;;;;;;;;;;;9.27;52.29;93576.09;2058019;69;20055;-76
2023/02/18 02:05:11;;;;;;;;;;;;;;;9.42;52.07;93569.53;2058394;69;20069;-77
2023/02/18 02:07:37;;;;;;;;;;;;;;;9.31;52.24;93570.81;2054793;69;20387;-78
2023/02/18 02:10:03;;;;;;;;;;;;;;;9.45;52.06;93574.00;2057885;69;20117;-80
2023/02/18 02:12:38;;;;;;;;;;;;;;;9.38;52.38;93575.56;2056887;69;20085;-77
2023/02/18 02:15:23;;;;;;;;;;;;;;;9.15;52.53;93589.91;2058722;69;20053;-77
2023/02/18 02:18:01;;;;;;;;;;;;;;;9.06;53.27;93573.72;2056862;69;20074;-80
2023/02/18 02:20:26;;;;;;;;;;;;;;;9.09;53.07;93560.59;2054792;69;20160;-78
2023/02/18 02:22:55;;;;;;;;;;;;;;;9.27;52.34;93566.94;2057062;69;20116;-80
2023/02/18 02:25:39;;;;;;;;;;;;;;;9.32;52.34;93563.13;2056720;69;20433;-78
2023/02/18 02:28:10;;;;;;;;;;;;;;;9.22;52.33;93565.88;2057319;69;20073;-78
2023/02/18 02:30:40;;;;;;;;;;;;;;;9.27;52.23;93559.25;2055410;69;20042;-77
2023/02/18 02:33:24;;;;;;;;;;;;;;;9.27;52.90;93553.63;2056242;69;20069;-72
2023/02/18 02:36:04;;;;;;;;;;;;;;;9.06;53.29;93554.06;2057840;69;20539;-76
2023/02/18 02:38:33;;;;;;;;;;;;;;;9.13;52.90;93547.63;2056953;69;20058;-79
2023/02/18 02:41:14;;;;;;;;;;;;;;;9.17;52.40;93558.44;2056579;69;20053;-75
2023/02/18 02:43:50;;;;;;;;;;;;;;;9.31;51.30;93553.94;2056369;69;20430;-78
2023/02/18 02:46:34;;;;;;;;;;;;;;;9.14;51.98;93549.09;2058288;69;20240;-77
2023/02/18 02:48:59;;;;;;;;;;;;;;;9.28;51.69;93543.13;2056069;69;20128;-77
2023/02/18 02:51:24;;;;;;;;;;;;;;;9.06;52.44;93537.22;2058659;69;20058;-75
2023/02/18 02:53:50;;;;;;;;;;;;;;;9.07;51.81;93532.34;2056678;69;20128;-72
2023/02/18 02:56:16;;;;;;;;;;;;;;;8.87;52.52;93539.91;2058292;69;20077;-78
2023/02/18 02:58:43;;;;;;;;;;;;;;;9.13;51.75;93539.19;2057718;69;20046;-79
2023/02/18 03:01:21;;;;;;;;;;;;;;;9.01;52.55;93537.47;2057245;69;20038;-79
2023/02/18 03:04:03;;;;;;;;;;;;;;;9.02;52.19;93539.69;2059938;69;20055;-79
2023/02/18 03:06:34;;;;;;;;;;;;;;;9.11;52.43;93532.66;2057300;69;20056;-78
2023/02/18 03:09:18;;;;;;;;;;;;;;;9.13;52.33;93541.25;2056634;69;20226;-77
2023/02/18 03:12:02;;;;;;;;;;;;;;;8.88;53.24;93528.06;2057862;69;20086;-79
2023/02/18 03:14:37;;;;;;;;;;;;;;;8.83;53.89;93529.06;2056683;69;20069;-78
2023/02/18 03:17:23;;;;;;;;;;;;;;;8.82;53.61;93526.84;2056779;69;20053;-77
2023/02/18 03:19:54;;;;;;;;;;;;;;;8.91;53.16;93532.53;2057332;69;20050;-77
2023/02/18 03:22:22;;;;;;;;;;;;;;;8.97;52.64;93542.78;2056566;69;20057;-76
2023/02/18 03:24:50;;;;;;;;;;;;;;;9.01;52.42;93535.41;2056404;69;20509;-76
2023/02/18 03:27:20;;;;;;;;;;;;;;;8.86;53.21;93536.34;2057729;69;20046;-78
2023/02/18 03:29:48;;;;;;;;;;;;;;;8.99;52.90;93531.72;2059298;69;20050;-75
2023/02/18 03:32:16;;;;;;;;;;;;;;;8.75;53.77;93536.88;2059533;69;20049;-75
2023/02/18 03:34:43;;;;;;;;;;;;;;;8.88;52.54;93538.56;2059214;69;20066;-78
2023/02/18 03:37:09;;;;;;;;;;;;;;;8.90;52.56;93538.75;2057307;69;20098;-77
2023/02/18 03:39:36;;;;;;;;;;;;;;;8.75;52.36;93536.09;2057206;69;20576;-77
2023/02/18 03:42:02;;;;;;;;;;;;;;;8.98;52.24;93533.00;2056464;69;20124;-77
2023/02/18 03:44:29;;;;;;;;;;;;;;;8.90;52.21;93533.13;2057336;69;20066;-79
2023/02/18 03:46:55;;;;;;;;;;;;;;;8.85;52.46;93531.31;2056782;69;20204;-79
2023/02/18 03:49:20;;;;;;;;;;;;;;;8.82;52.63;93521.97;2057369;69;20181;-79
2023/02/18 03:51:46;;;;;;;;;;;;;;;8.77;53.62;93525.78;2057761;69;20184;-74
2023/02/18 03:54:13;;;;;;;;;;;;;;;8.74;53.30;93512.16;2057625;69;20073;-78
2023/02/18 03:56:40;;;;;;;;;;;;;;;8.64;52.91;93512.09;2056894;69;20046;-77
2023/02/18 03:59:05;;;;;;;;;;;;;;;8.77;52.91;93522.97;2057911;69;20412;-76
2023/02/18 04:01:31;;;;;;;;;;;;;;;8.80;52.94;93515.47;2057895;69;20124;-77
2023/02/18 04:03:56;;;;;;;;;;;;;;;8.68;52.92;93514.50;2056876;69;20089;-75
2023/02/18 04:06:22;;;;;;;;;;;;;;;8.71;52.91;93508.47;2058047;69;20124;-79
2023/02/18 04:08:48;;;;;;;;;;;;;;;8.63;52.83;93508.53;2057963;69;20058;-78
2023/02/18 04:11:13;;;;;;;;;;;;;;;8.78;52.36;93518.09;2058266;69;20138;-79
2023/02/18 04:13:39;;;;;;;;;;;;;;;8.76;53.05;93507.47;2057470;69;20410;-79
2023/02/18 04:16:04;;;;;;;;;;;;;;;8.68;52.54;93514.50;2058040;69;20102;-80
2023/02/18 04:18:30;;;;;;;;;;;;;;;8.50;53.05;93517.31;2055219;69;20053;-80
2023/02/18 04:20:55;;;;;;;;;;;;;;;8.45;52.83;93512.69;2057990;69;20080;-78
2023/02/18 04:23:21;;;;;;;;;;;;;;;8.47;53.41;93506.47;2057235;69;20090;-76
2023/02/18 04:25:46;;;;;;;;;;;;;;;8.08;53.57;93517.34;2057578;69;20089;-77
2023/02/18 04:28:13;;;;;;;;;;;;;;;8.22;54.11;93514.97;2057494;69;20482;-79
2023/02/18 04:30:38;;;;;;;;;;;;;;;8.36;54.29;93510.50;2056916;69;20062;-79
2023/02/18 04:33:04;;;;;;;;;;;;;;;8.40;53.51;93513.69;2057178;69;20061;-77
2023/02/18 04:35:30;;;;;;;;;;;;;;;8.25;53.21;93517.38;2057439;69;20134;-78
2023/02/18 04:37:55;;;;;;;;;;;;;;;8.55;52.66;93518.38;2057158;69;20097;-76
2023/02/18 04:40:21;;;;;;;;;;;;;;;8.37;54.16;93506.41;2058305;69;20077;-76
2023/02/18 04:42:46;;;;;;;;;;;;;;;7.96;54.33;93519.13;2057967;69;20455;-78
2023/02/18 04:45:12;;;;;;;;;;;;;;;7.97;54.10;93512.19;2058683;69;20122;-78
2023/02/18 04:47:37;;;;;;;;;;;;;;;8.13;53.38;93507.94;2056509;69;20054;-78
2023/02/18 04:50:03;;;;;;;;;;;;;;;8.20;53.39;93509.16;2058509;69;20039;-78
2023/02/18 04:52:28;;;;;;;;;;;;;;;8.07;54.30;93513.78;2057845;69;20072;-76
2023/02/18 04:54:54;;;;;;;;;;;;;;;7.84;54.58;93510.47;2058017;69;20042;-72
2023/02/18 04:57:19;;;;;;;;;;;;;;;7.90;54.09;93520.09;2057716;69;20479;-78
2023/02/18 04:59:44;;;;;;;;;;;;;;;8.10;54.42;93514.69;2057527;69;20061;-79
2023/02/18 05:02:10;;;;;;;;;;;;;;;8.16;54.14;93520.81;2057666;69;20177;-79
2023/02/18 05:04:35;;;;;;;;;;;;;;;8.13;53.77;93521.97;2057521;69;20054;-78
2023/02/18 05:07:01;;;;;;;;;;;;;;;8.32;53.25;93518.59;2055505;69;20054;-79
2023/02/18 05:09:26;;;;;;;;;;;;;;;8.21;53.47;93519.09;2058385;69;20089;-78
2023/02/18 05:11:52;;;;;;;;;;;;;;;7.96;54.20;93522.66;2058214;69;20050;-78
2023/02/18 05:14:17;;;;;;;;;;;;;;;7.71;55.00;93519.16;2058036;69;20175;-73
2023/02/18 05:16:42;;;;;;;;;;;;;;;7.80;55.31;93524.88;2057969;69;20057;-79
2023/02/18 05:19:12;;;;;;;;;;;;;;;7.98;54.39;93528.47;2057225;69;20054;-76
2023/02/18 05:21:38;;;;;;;;;;;;;;;7.98;54.40;93527.72;2057921;69;20139;-76
2023/02/18 05:24:03;;;;;;;;;;;;;;;7.93;54.66;93528.69;2057695;69;20077;-81
2023/02/18 05:26:29;;;;;;;;;;;;;;;7.87;54.98;93526.84;2057137;69;20038;-72
2023/02/18 05:28:54;;;;;;;;;;;;;;;7.74;54.71;93524.34;2057428;69;20054;-76
2023/02/18 05:31:19;;;;;;;;;;;;;;;7.95;54.34;93526.78;2057611;69;20433;-76
2023/02/18 05:33:45;;;;;;;;;;;;;;;8.01;53.76;93518.13;2056993;69;20050;-76
2023/02/18 05:36:10;;;;;;;;;;;;;;;7.95;55.03;93528.84;2056969;69;20157;-76
2023/02/18 05:38:36;;;;;;;;;;;;;;;7.92;55.22;93535.59;2057440;69;20066;-76
2023/02/18 05:41:01;;;;;;;;;;;;;;;7.75;55.02;93525.84;2056776;69;20492;-77
2023/02/18 05:43:27;;;;;;;;;;;;;;;7.88;54.71;93536.78;2057675;69;20112;-77
2023/02/18 05:45:52;;;;;;;;;;;;;;;7.89;54.88;93524.22;2057707;69;20050;-75
2023/02/18 05:48:18;;;;;;;;;;;;;;;7.90;53.98;93522.91;2058132;69;20113;-77
2023/02/18 05:50:44;;;;;;;;;;;;;;;7.81;54.83;93517.19;2057986;69;20050;-77
2023/02/18 05:53:09;;;;;;;;;;;;;;;7.75;55.73;93516.69;2057501;69;20139;-76
2023/02/18 05:55:37;;;;;;;;;;;;;;;7.75;55.17;93516.69;2057830;69;20062;-80
2023/02/18 05:58:03;;;;;;;;;;;;;;;7.76;54.82;93518.91;2056742;69;20046;-80
2023/02/18 06:00:30;;;;;;;;;;;;;;;7.81;54.51;93514.41;2057373;69;20046;-78
2023/02/18 06:02:56;;;;;;;;;;;;;;;7.89;54.04;93515.81;2056602;69;20137;-80
2023/02/18 06:05:21;;;;;;;;;;;;;;;7.82;55.37;93522.22;2057199;69;20209;-77
2023/02/18 06:07:47;;;;;;;;;;;;;;;7.65;54.95;93522.16;2056727;69;20149;-80
2023/02/18 06:10:12;;;;;;;;;;;;;;;7.87;53.94;93520.50;2056769;69;20182;-76
2023/02/18 06:12:38;;;;;;;;;;;;;;;7.93;53.65;93528.69;2057307;69;20105;-80
2023/02/18 06:15:05;;;;;;;;;;;;;;;7.76;54.48;93526.59;2057709;69;20098;-78
2023/02/18 06:17:31;;;;;;;;;;;;;;;7.72;54.45;93529.06;2058024;69;20050;-80
2023/02/18 06:19:57;;;;;;;;;;;;;;;7.71;54.18;93533.91;2057807;69;20120;-79
2023/02/18 06:22:22;;;;;;;;;;;;;;;7.83;54.31;93525.75;2057777;69;20563;-80
2023/02/18 06:24:48;;;;;;;;;;;;;;;7.64;54.29;93529.84;2058158;69;20483;-78
2023/02/18 06:27:13;;;;;;;;;;;;;;;7.59;54.78;93524.47;2058822;69;20049;-82
2023/02/18 06:29:39;;;;;;;;;;;;;;;7.64;54.82;93512.28;2059925;69;20050;-80
2023/02/18 06:32:05;;;;;;;;;;;;;;;7.86;53.81;93514.16;2059280;69;20053;-80
2023/02/18 06:34:31;;;;;;;;;;;;;;;7.73;54.25;93511.66;2058830;69;20056;-80
2023/02/18 06:36:56;;;;;;;;;;;;;;;7.77;54.03;93520.41;2057815;69;20082;-80
2023/02/18 06:39:21;;;;;;;;;;;;;;;7.79;54.72;93526.19;2058537;69;20058;-78
2023/02/18 06:41:47;;;;;;;;;;;;;;;7.81;54.04;93529.16;2058412;69;20145;-78
2023/02/18 06:44:15;;;;;;;;;;;;;;;7.83;54.60;93528.56;2057788;69;20143;-80
2023/02/18 06:46:41;;;;;;;;;;;;;;;7.81;53.80;93517.94;2058262;69;20061;-79
2023/02/18 06:49:06;;;;;;;;;;;;;;;7.82;53.58;93521.47;2058408;69;20519;-80
2023/02/18 06:51:34;;;;;;;;;;;;;;;7.86;53.46;93524.63;2058919;69;20499;-78
2023/02/18 06:54:04;;;;;;;;;;;;;;;7.95;53.32;93521.19;2058550;69;20077;-85
2023/02/18 06:56:30;;;;;;;;;;;;;;;7.96;54.22;93525.47;2058476;69;20051;-79
2023/02/18 06:58:55;;;;;;;;;;;;;;;7.89;53.65;93523.50;2058470;69;20049;-79
2023/02/18 07:01:20;;;;;;;;;;;;;;;7.93;53.50;93520.28;2058497;69;20479;-80
2023/02/18 07:03:46;;;;;;;;;;;;;;;7.93;54.39;93511.88;2058174;69;20168;-76
2023/02/18 07:06:11;;;;;;;;;;;;;;;7.83;54.51;93522.97;2057953;69;20053;-79
2023/02/18 07:08:37;;;;;;;;;;;;;;;7.95;53.97;93512.03;2058436;69;20499;-80
2023/02/18 07:11:03;;;;;;;;;;;;;;;7.98;53.49;93519.31;2058525;69;20164;-79
2023/02/18 07:13:29;;;;;;;;;;;;;;;8.15;53.70;93510.91;2058608;69;20089;-81
2023/02/18 07:15:54;;;;;;;;;;;;;;;8.23;53.64;93524.84;2058283;69;20116;-79
2023/02/18 07:18:20;;;;;;;;;;;;;;;8.35;53.21;93525.88;2058204;69;20042;-79
2023/02/18 07:20:45;;;;;;;;;;;;;;;7.98;53.35;93525.66;2058419;69;20141;-78
2023/02/18 07:23:11;;;;;;;;;;;;;;;8.11;53.52;93516.94;2058425;69;20398;-80
2023/02/18 07:25:36;;;;;;;;;;;;;;;8.31;53.67;93517.84;2058348;69;20156;-83
2023/02/18 07:28:02;;;;;;;;;;;;;;;8.06;54.00;93525.56;2058720;69;20476;-78
2023/02/18 07:30:27;;;;;;;;;;;;;;;8.24;53.00;93521.47;2058674;69;20146;-81
2023/02/18 07:32:52;;;;;;;;;;;;;;;8.30;52.92;93519.19;2058045;69;20076;-81
2023/02/18 07:35:20;;;;;;;;;;;;;;;8.46;52.75;93505.00;2058311;69;20145;-77
2023/02/18 07:37:46;;;;;;;;;;;;;;;8.38;52.55;93513.50;2058469;69;20058;-80
2023/02/18 07:40:13;;;;;;;;;;;;;;;8.60;52.04;93511.75;2058601;69;20050;-82
2023/02/18 07:42:38;;;;;;;;;;;;;;;8.32;52.11;93510.91;2058547;69;20077;-81
2023/02/18 07:45:04;;;;;;;;;;;;;;;8.32;52.34;93512.97;2058593;69;20472;-81
2023/02/18 07:47:29;;;;;;;;;;;;;;;8.67;52.05;93496.16;2058397;69;20169;-78
2023/02/18 07:49:56;;;;;;;;;;;;;;;8.78;51.57;93515.31;2058568;69;20058;-83
2023/02/18 07:52:22;;;;;;;;;;;;;;;8.85;51.47;93522.91;2058764;69;20057;-79
2023/02/18 07:54:48;;;;;;;;;;;;;;;8.80;51.16;93507.78;2058601;69;20050;-80
2023/02/18 07:57:14;;;;;;;;;;;;;;;8.84;50.86;93524.97;2058430;69;20149;-80
2023/02/18 07:59:39;;;;;;;;;;;;;;;8.68;51.19;93512.41;2058478;69;20058;-82
2023/02/18 08:02:06;;;;;;;;;;;;;;;9.11;50.79;93510.19;2058366;69;20047;-82
2023/02/18 08:04:32;;;;;;;;;;;;;;;8.97;50.48;93515.44;2058456;69;20403;-79
2023/02/18 08:06:57;;;;;;;;;;;;;;;9.23;49.83;93499.19;2058488;69;20057;-82
2023/02/18 08:09:23;;;;;;;;;;;;;;;9.20;49.87;93508.75;2058462;69;20149;-79
2023/02/18 08:11:48;;;;;;;;;;;;;;;9.62;49.25;93498.03;2058549;69;20053;-81
2023/02/18 08:14:14;;;;;;;;;;;;;;;9.37;49.68;93495.41;2058471;69;20120;-77
2023/02/18 08:16:39;;;;;;;;;;;;;;;9.31;49.25;93497.00;2058216;69;20050;-82
2023/02/18 08:19:05;;;;;;;;;;;;;;;9.35;49.49;93505.75;2057992;69;20046;-82
2023/02/18 08:21:31;;;;;;;;;;;;;;;9.60;49.07;93503.50;2055323;69;20042;-82
2023/02/18 08:23:57;;;;;;;;;;;;;;;9.85;49.03;93505.34;2058498;69;20077;-83
2023/02/18 08:26:23;;;;;;;;;;;;;;;9.93;48.98;93503.16;2058566;69;20185;-81
2023/02/18 08:28:48;;;;;;;;;;;;;;;9.98;48.69;93507.75;2058932;69;20082;-84
2023/02/18 08:31:18;;;;;;;;;;;;;;;9.78;49.08;93484.47;2059153;69;20053;-84
2023/02/18 08:33:43;;;;;;;;;;;;;;;9.93;49.03;93484.19;2059240;69;20053;-83
2023/02/18 08:36:09;;;;;;;;;;;;;;;10.31;49.27;93496.91;2059074;69;20046;-83
2023/02/18 08:38:34;;;;;;;;;;;;;;;10.46;49.28;93487.44;2060036;69;20050;-84
2023/02/18 08:41:01;;;;;;;;;;;;;;;10.41;49.45;93482.84;2060902;69;20056;-74
2023/02/18 08:43:27;;;;;;;;;;;;;;;10.46;48.97;93483.88;2058956;69;20599;-85
2023/02/18 08:45:52;;;;;;;;;;;;;;;11.09;47.42;93480.00;2058796;69;20065;-84
2023/02/18 08:48:18;;;;;;;;;;;;;;;11.10;47.05;93482.19;2059064;69;20046;-83
2023/02/18 08:50:43;;;;;;;;;;;;;;;11.51;45.51;93473.03;2056464;69;20478;-83
2023/02/18 08:53:10;;;;;;;;;;;;;;;12.12;44.40;93471.59;2059025;69;20058;-84
2023/02/18 08:55:39;;;;;;;;;;;;;;;12.43;43.29;93469.44;2058965;69;20116;-84
2023/02/18 08:58:05;;;;;;;;;;;;;;;12.65;43.71;93460.97;2059305;69;20073;-80
2023/02/18 09:00:32;;;;;;;;;;;;;;;13.35;42.06;93463.31;2058817;69;20057;-83
2023/02/18 09:02:58;;;;;;;;;;;;;;;13.23;41.21;93469.66;2059457;69;20062;-82
2023/02/18 09:05:23;;;;;;;;;;;;;;;13.42;42.98;93474.41;2059723;69;20490;-81
2023/02/18 09:07:49;;;;;;;;;;;;;;;13.80;41.64;93466.81;2060559;69;20073;-83
2023/02/18 09:10:14;;;;;;;;;;;;;;;14.19;39.99;93461.34;2059623;69;20485;-79
2023/02/18 09:12:40;;;;;;;;;;;;;;;14.48;39.02;93460.25;2062306;69;20426;-82
2023/02/18 09:15:05;;;;;;;;;;;;;;;14.55;38.78;93450.72;2061315;69;20104;-76
2023/02/18 09:17:31;;;;;;;;;;;;;;;15.09;39.60;93452.38;2060126;69;20095;-82
2023/02/18 09:19:56;;;;;;;;;;;;;;;15.35;38.50;93447.44;2059138;69;20441;-81
2023/02/18 09:22:22;;;;;;;;;;;;;;;15.36;38.27;93445.34;2058691;69;20096;-80
2023/02/18 09:24:47;;;;;;;;;;;;;;;16.00;37.34;93433.19;2058318;69;20058;-80
2023/02/18 09:27:13;;;;;;;;;;;;;;;16.39;36.88;93438.00;2058648;69;20426;-82
2023/02/18 09:29:39;;;;;;;;;;;;;;;16.34;35.01;93433.50;2059131;69;20056;-81
2023/02/18 09:32:05;;;;;;;;;;;;;;;16.49;34.86;93432.84;2058640;69;20049;-81
2023/02/18 09:34:33;;;;;;;;;;;;;;;16.47;34.69;93424.22;2058232;69;20062;-81
2023/02/18 09:36:59;;;;;;;;;;;;;;;16.97;34.21;93417.50;2058663;69;20492;-82
2023/02/18 09:39:27;;;;;;;;;;;;;;;16.95;34.98;93420.25;2058852;69;20050;-82
2023/02/18 09:41:54;;;;;;;;;;;;;;;17.31;34.06;93429.03;2058828;69;20061;-82
2023/02/18 09:44:32;;;;;;;;;;;;;;;17.81;34.03;93415.72;2058653;69;20046;-79
2023/02/18 09:47:03;;;;;;;;;;;;;;;18.21;32.98;93405.41;2058594;69;20050;-81
2023/02/18 09:49:32;;;;;;;;;;;;;;;18.43;32.96;93410.59;2058614;69;20147;-79
2023/02/18 09:52:02;;;;;;;;;;;;;;;16.32;35.04;93417.09;2058560;69;20073;-76
2023/02/18 09:54:27;;;;;;;;;;;;;;;17.81;34.38;93403.59;2058504;69;20161;-81
2023/02/18 09:56:53;;;;;;;;;;;;;;;18.16;33.51;93403.03;2059216;69;20390;-81
2023/02/18 09:59:21;;;;;;;;;;;;;;;18.87;33.18;93402.47;2058583;69;20058;-80
2023/02/18 10:01:47;;;;;;;;;;;;;;;19.51;31.32;93401.47;2058543;69;20116;-79
2023/02/18 10:04:16;;;;;;;;;;;;;;;20.18;29.95;93393.97;2058568;69;20229;-80
2023/02/18 10:06:42;;;;;;;;;;;;;;;20.42;29.39;93397.69;2058827;69;20061;-82
2023/02/18 10:09:15;;;;;;;;;;;;;;;20.02;29.86;93389.16;2058196;69;20085;-81
2023/02/18 10:11:41;;;;;;;;;;;;;;;20.54;29.49;93397.44;2058932;69;20054;-80
2023/02/18 10:14:11;;;;;;;;;;;;;;;21.37;29.31;93390.91;2058556;69;20493;-79
2023/02/18 10:16:37;;;;;;;;;;;;;;;22.23;27.42;93379.88;2058458;69;20050;-81
2023/02/18 10:19:23;;;;;;;;;;;;;;;22.44;26.64;93375.41;2058560;69;20057;-81
2023/02/18 10:21:49;;;;;;;;;;;;;;;21.48;27.41;93371.88;2058552;69;20057;-79
2023/02/18 10:24:33;;;;;;;;;;;;;;;23.03;26.34;93379.88;2058730;69;20058;-80
2023/02/18 10:26:59;;;;;;;;;;;;;;;22.50;27.10;93367.00;2058436;69;20101;-81
2023/02/18 10:29:25;;;;;;;;;;;;;;;22.06;25.89;93361.44;2058419;69;20145;-80
2023/02/18 10:31:54;;;;;;;;;;;;;;;22.75;25.16;93364.75;2058386;69;20137;-81
2023/02/18 10:34:19;;;;;;;;;;;;;;;21.95;25.55;93347.50;2058397;69;20149;-80
2023/02/18 10:36:46;;;;;;;;;;;;;;;21.29;26.10;93354.13;2058447;69;20122;-80
2023/02/18 10:39:23;;;;;;;;;;;;;;;21.51;25.50;93351.25;2057738;69;20050;-80
2023/02/18 10:41:58;;;;;;;;;;;;;;;21.31;27.71;93351.34;2058231;69;20499;-78
2023/02/18 10:44:39;;;;;;;;;;;;;;;21.35;27.62;93350.00;2058312;69;20046;-75
2023/02/18 10:47:43;;;;;;;;;;;;;;;22.46;26.01;93351.81;2058347;69;20041;-78
2023/02/18 10:50:09;;;;;;;;;;;;;;;23.29;24.64;93335.97;2047236;70;20140;-81
2023/02/18 10:52:42;;;;;;;;;;;;;;;22.64;25.46;93331.47;2047375;70;20063;-79
2023/02/18 10:55:09;;;;;;;;;;;;;;;20.62;28.52;93329.06;2047281;70;20063;-78
2023/02/18 10:57:44;;;;;;;;;;;;;;;20.99;28.61;93325.28;2044583;70;20074;-79
2023/02/18 11:00:22;;;;;;;;;;;;;;;22.84;25.71;93318.38;2047233;70;20128;-78
2023/02/18 11:03:08;;;;;;;;;;;;;;;24.94;24.14;93333.63;2047127;70;20058;-79
2023/02/18 11:05:34;;;;;;;;;;;;;;;23.94;24.79;93323.06;2047083;70;20062;-79
2023/02/18 11:08:01;;;;;;;;;;;;;;;24.28;23.72;93313.66;2047235;70;20043;-80
2023/02/18 11:10:31;;;;;;;;;;;;;;;23.56;24.73;93306.44;2047263;70;20122;-79
2023/02/18 11:12:59;;;;;;;;;;;;;;;21.62;28.04;93302.84;2047314;70;20062;-81
2023/02/18 11:15:27;;;;;;;;;;;;;;;23.35;26.79;93301.63;2047324;70;20051;-80
2023/02/18 11:17:54;;;;;;;;;;;;;;;24.73;24.70;93297.97;2047178;70;20055;-80
2023/02/18 11:20:26;;;;;;;;;;;;;;;27.58;22.45;93300.00;2050294;69;20080;-80
2023/02/18 11:22:56;;;;;;;;;;;;;;;28.34;19.54;93290.31;2058330;69;20054;-80
2023/02/18 11:25:23;;;;;;;;;;;;;;;28.24;19.18;93301.84;2058416;69;20589;-80
2023/02/18 11:27:54;;;;;;;;;;;;;;;28.77;20.36;93299.13;2058328;69;20050;-79
2023/02/18 11:30:21;;;;;;;;;;;;;;;26.57;21.06;93283.25;2058415;69;20156;-80
2023/02/18 11:32:48;;;;;;;;;;;;;;;28.67;21.52;93290.41;2058096;69;20124;-79
2023/02/18 11:35:19;;;;;;;;;;;;;;;29.46;19.50;93274.53;2058306;69;20054;-78
2023/02/18 11:37:44;;;;;;;;;;;;;;;29.78;18.40;93271.63;2058415;69;20583;-79
2023/02/18 11:40:22;;;;;;;;;;;;;;;27.42;19.63;93265.94;2058415;69;20132;-79
2023/02/18 11:42:48;;;;;;;;;;;;;;;26.63;21.80;93273.94;2058384;69;20077;-80
2023/02/18 11:45:28;;;;;;;;;;;;;;;26.76;21.66;93273.34;2058328;69;20054;-79
2023/02/18 11:48:05;;;;;;;;;;;;;;;26.61;21.50;93263.09;2058232;69;20111;-78
2023/02/18 11:50:32;;;;;;;;;;;;;;;27.16;21.36;93243.34;2058294;69;20050;-78
2023/02/18 11:52:58;;;;;;;;;;;;;;;28.34;19.81;93241.09;2058393;69;20076;-78
2023/02/18 11:55:29;;;;;;;;;;;;;;;25.78;20.97;93245.56;2058481;69;20053;-79
2023/02/18 11:57:57;;;;;;;;;;;;;;;25.99;22.56;93243.66;2058481;69;20158;-79
2023/02/18 12:00:40;;;;;;;;;;;;;;;27.52;21.92;93250.81;2058324;69;20057;-79
2023/02/18 12:03:33;;;;;;;;;;;;;;;29.76;19.58;93242.59;2058340;69;20054;-78
2023/02/18 12:06:01;;;;;;;;;;;;;;;31.22;18.33;93239.66;2047242;70;20059;-78
2023/02/18 12:08:27;;;;;;;;;;;;;;;31.31;17.55;93233.06;2047326;70;20051;-77
2023/02/18 12:10:58;;;;;;;;;;;;;;;32.30;17.85;93229.81;2047171;70;20082;-78
2023/02/18 12:13:35;;;;;;;;;;;;;;;32.46;17.62;93218.00;2047276;70;20061;-78
2023/02/18 12:16:08;;;;;;;;;;;;;;;32.00;17.16;93222.19;2047231;70;20051;-79
2023/02/18 12:18:46;;;;;;;;;;;;;;;32.67;17.19;93230.09;2047110;70;20100;-79
2023/02/18 12:21:26;;;;;;;;;;;;;;;33.76;15.18;93229.78;2047144;70;20077;-77
2023/02/18 12:24:07;;;;;;;;;;;;;;;34.52;15.51;93225.44;2047166;70;20051;-79
2023/02/18 12:26:40;;;;;;;;;;;;;;;34.97;14.78;93219.31;2048903;70;20074;-79
2023/02/18 12:29:08;;;;;;;;;;;;;;;34.47;15.69;93215.31;2047764;70;20043;-78
2023/02/18 12:31:39;;;;;;;;;;;;;;;36.50;13.27;93214.63;2050317;70;20051;-79
2023/02/18 12:34:14;;;;;;;;;;;;;;;35.23;13.42;93211.38;2050439;70;20054;-78
2023/02/18 12:36:59;;;;;;;;;;;;;;;33.83;14.04;93201.22;2050549;70;20117;-79
2023/02/18 12:39:25;;;;;;;;;;;;;;;30.46;17.86;93204.56;2048648;70;20133;-79
2023/02/18 12:42:00;;;;;;;;;;;;;;;32.94;15.80;93200.53;2051819;69;20046;-79
2023/02/18 12:44:32;;;;;;;;;;;;;;;35.62;14.39;93194.31;2061526;69;20042;-79
2023/02/18 12:47:01;;;;;;;;;;;;;;;36.46;12.57;93189.09;2061417;69;20084;-79
2023/02/18 12:49:35;;;;;;;;;;;;;;;37.19;12.70;93182.47;2061549;69;20379;-79
2023/02/18 12:52:12;;;;;;;;;;;;;;;33.99;13.18;93180.47;2061533;69;20057;-78
2023/02/18 12:54:53;;;;;;;;;;;;;;;33.31;14.70;93177.31;2061696;69;20054;-78
2023/02/18 12:57:38;;;;;;;;;;;;;;;33.73;14.44;93181.69;2061692;69;20057;-77